KCRW/CRW METAR and TAF weather

Enter ICAO airport designator
Station Type Date Time Source
KCRW METAR 2021/06/24 05:54 UTC NOAA

KCRW 240554Z 03003KT 10SM CLR 14/13 A3021 RMK AO2 SLP224 T01390133 10233 20139 58002


Station Type Date Time Source
KCRW Decoded METAR 2021/06/24 05:54 UTC NOAA

YEAGER AIRPORT, WV, United States (KCRW) 38-22N 081-36W 309M
Jun 24, 2021 - 01:54 AM EDT / 2021.06.24 0554 UTC
Wind: from the NNE (030 degrees) at 3 MPH (3 KT):0
Visibility: 10 mile(s):0
Sky conditions: clear
Temperature: 57.0 F (13.9 C)
Dew Point: 55.9 F (13.3 C)
Relative Humidity: 96%
Pressure (altimeter): 30.21 in. Hg (1023 hPa)
Pressure tendency: 0.01 inches (0.2 hPa) lower than three hours ago
ob: KCRW 240554Z 03003KT 10SM CLR 14/13 A3021 RMK AO2 SLP224 T01390133 10233 20139 58002
cycle: 6

Station Type Date Time Source
KCRW TAF 2021/06/24 06:22 UTC NOAA

TAF KCRW 240520Z 2406/2506 VRB03KT P6SM FEW250
FM240900 00000KT 6SM BR FEW001
FM241200 16005KT P6SM FEW250

Example: see airport list